sensor_id;sensor_type;location;lat;lon;timestamp;temperature;humidity
14755;DHT22;7469;50.906;6.952;2024-01-15T00:00:38;1.70;99.90
14755;DHT22;7469;50.906;6.952;2024-01-15T00:03:07;1.60;99.90
14755;DHT22;7469;50.906;6.952;2024-01-15T00:05:35;1.70;99.90
14755;DHT22;7469;50.906;6.952;2024-01-15T00:08:04;1.60;99.90
14755;DHT22;7469;50.906;6.952;2024-01-15T00:10:32;1.60;99.90
14755;DHT22;7469;50.906;6.952;2024-01-15T00:13:00;1.50;99.90
14755;DHT22;7469;50.906;6.952;2024-01-15T00:15:28;1.50;99.90
14755;DHT22;7469;50.906;6.952;2024-01-15T00:17:58;1.50;99.90
14755;DHT22;7469;50.906;6.952;2024-01-15T00:20:26;1.50;99.90
14755;DHT22;7469;50.906;6.952;2024-01-15T00:22:58;1.50;99.90
14755;DHT22;7469;50.906;6.952;2024-01-15T00:25:26;1.50;99.90
14755;DHT22;7469;50.906;6.952;2024-01-15T00:27:54;1.50;99.90
14755;DHT22;7469;50.906;6.952;2024-01-15T00:30:22;1.40;99.90
14755;DHT22;7469;50.906;6.952;2024-01-15T00:32:50;1.40;99.90
14755;DHT22;7469;50.906;6.952;2024-01-15T00:35:19;1.40;99.90
14755;DHT22;7469;50.906;6.952;2024-01-15T00:37:47;1.40;99.90
14755;DHT22;7469;50.906;6.952;2024-01-15T00:40:15;1.30;99.90
14755;DHT22;7469;50.906;6.952;2024-01-15T00:42:43;1.30;99.90
14755;DHT22;7469;50.906;6.952;2024-01-15T00:45:11;1.30;99.90
14755;DHT22;7469;50.906;6.952;2024-01-15T00:47:39;1.30;99.90
14755;DHT22;7469;50.906;6.952;2024-01-15T00:50:08;1.30;99.90
14755;DHT22;7469;50.906;6.952;2024-01-15T00:52:37;1.30;99.90
14755;DHT22;7469;50.906;6.952;2024-01-15T00:55:06;1.20;99.90
14755;DHT22;7469;50.906;6.952;2024-01-15T00:57:34;1.30;99.90
14755;DHT22;7469;50.906;6.952;2024-01-15T01:00:03;1.30;99.90
14755;DHT22;7469;50.906;6.952;2024-01-15T01:02:33;1.30;99.90
14755;DHT22;7469;50.906;6.952;2024-01-15T01:05:00;1.20;99.90
14755;DHT22;7469;50.906;6.952;2024-01-15T01:07:29;1.20;99.90
14755;DHT22;7469;50.906;6.952;2024-01-15T01:09:58;1.20;99.90
14755;DHT22;7469;50.906;6.952;2024-01-15T01:12:26;1.20;99.90
14755;DHT22;7469;50.906;6.952;2024-01-15T01:14:54;1.20;99.90
14755;DHT22;7469;50.906;6.952;2024-01-15T01:17:22;1.30;99.90
14755;DHT22;7469;50.906;6.952;2024-01-15T01:19:50;1.30;99.90
14755;DHT22;7469;50.906;6.952;2024-01-15T01:22:19;1.30;99.90
14755;DHT22;7469;50.906;6.952;2024-01-15T01:24:47;1.30;99.90
14755;DHT22;7469;50.906;6.952;2024-01-15T01:27:16;1.30;99.90
14755;DHT22;7469;50.906;6.952;2024-01-15T01:29:44;1.30;99.90
14755;DHT22;7469;50.906;6.952;2024-01-15T01:32:12;1.30;99.90
14755;DHT22;7469;50.906;6.952;2024-01-15T01:34:41;1.30;99.90
14755;DHT22;7469;50.906;6.952;2024-01-15T01:37:10;1.30;99.90
14755;DHT22;7469;50.906;6.952;2024-01-15T01:39:39;1.30;99.90
14755;DHT22;7469;50.906;6.952;2024-01-15T01:42:07;1.30;99.90
14755;DHT22;7469;50.906;6.952;2024-01-15T01:44:37;1.40;99.90
14755;DHT22;7469;50.906;6.952;2024-01-15T01:47:05;1.30;99.90
14755;DHT22;7469;50.906;6.952;2024-01-15T01:49:33;1.30;99.90
14755;DHT22;7469;50.906;6.952;2024-01-15T01:52:05;1.30;99.90
14755;DHT22;7469;50.906;6.952;2024-01-15T01:54:34;1.30;99.90
14755;DHT22;7469;50.906;6.952;2024-01-15T01:57:04;1.30;99.90
14755;DHT22;7469;50.906;6.952;2024-01-15T01:59:34;1.30;99.90
14755;DHT22;7469;50.906;6.952;2024-01-15T02:02:03;1.30;99.90
14755;DHT22;7469;50.906;6.952;2024-01-15T02:04:32;1.30;99.90
14755;DHT22;7469;50.906;6.952;2024-01-15T02:07:00;1.30;99.90
14755;DHT22;7469;50.906;6.952;2024-01-15T02:09:28;1.30;99.90
14755;DHT22;7469;50.906;6.952;2024-01-15T02:11:56;1.30;99.90
14755;DHT22;7469;50.906;6.952;2024-01-15T02:14:24;1.30;99.90
14755;DHT22;7469;50.906;6.952;2024-01-15T02:16:52;1.40;99.90
14755;DHT22;7469;50.906;6.952;2024-01-15T02:19:22;1.40;99.90
14755;DHT22;7469;50.906;6.952;2024-01-15T02:21:50;1.40;99.90
14755;DHT22;7469;50.906;6.952;2024-01-15T02:24:19;1.40;99.90
14755;DHT22;7469;50.906;6.952;2024-01-15T02:26:48;1.40;99.90
14755;DHT22;7469;50.906;6.952;2024-01-15T02:29:16;1.40;99.90
14755;DHT22;7469;50.906;6.952;2024-01-15T02:31:44;1.40;99.90
14755;DHT22;7469;50.906;6.952;2024-01-15T02:34:13;1.40;99.90
14755;DHT22;7469;50.906;6.952;2024-01-15T02:36:41;1.40;99.90
14755;DHT22;7469;50.906;6.952;2024-01-15T02:39:09;1.40;99.90
14755;DHT22;7469;50.906;6.952;2024-01-15T02:41:38;1.40;99.90
14755;DHT22;7469;50.906;6.952;2024-01-15T02:44:06;1.50;99.90
14755;DHT22;7469;50.906;6.952;2024-01-15T02:46:34;1.50;99.90
14755;DHT22;7469;50.906;6.952;2024-01-15T02:49:02;1.50;99.90
14755;DHT22;7469;50.906;6.952;2024-01-15T02:51:30;1.50;99.90
14755;DHT22;7469;50.906;6.952;2024-01-15T02:53:58;1.50;99.90
14755;DHT22;7469;50.906;6.952;2024-01-15T02:56:26;1.50;99.90
14755;DHT22;7469;50.906;6.952;2024-01-15T02:58:55;1.50;99.90
14755;DHT22;7469;50.906;6.952;2024-01-15T03:01:23;1.50;99.90
14755;DHT22;7469;50.906;6.952;2024-01-15T03:03:51;1.50;99.90
14755;DHT22;7469;50.906;6.952;2024-01-15T03:06:22;1.50;99.90
14755;DHT22;7469;50.906;6.952;2024-01-15T03:08:50;1.50;99.90
14755;DHT22;7469;50.906;6.952;2024-01-15T03:11:17;1.50;99.90
14755;DHT22;7469;50.906;6.952;2024-01-15T03:13:45;1.60;99.90
14755;DHT22;7469;50.906;6.952;2024-01-15T03:16:15;1.60;99.90
14755;DHT22;7469;50.906;6.952;2024-01-15T03:18:43;1.50;99.90
14755;DHT22;7469;50.906;6.952;2024-01-15T03:21:11;1.50;99.90
14755;DHT22;7469;50.906;6.952;2024-01-15T03:23:39;1.50;99.90
14755;DHT22;7469;50.906;6.952;2024-01-15T03:26:06;1.50;99.90
14755;DHT22;7469;50.906;6.952;2024-01-15T03:28:34;1.50;99.90
14755;DHT22;7469;50.906;6.952;2024-01-15T03:31:03;1.50;99.90
14755;DHT22;7469;50.906;6.952;2024-01-15T03:33:32;1.50;99.90
14755;DHT22;7469;50.906;6.952;2024-01-15T03:36:00;1.50;99.90
14755;DHT22;7469;50.906;6.952;2024-01-15T03:38:28;1.50;99.90
14755;DHT22;7469;50.906;6.952;2024-01-15T03:40:56;1.50;99.90
14755;DHT22;7469;50.906;6.952;2024-01-15T03:43:25;1.50;99.90
14755;DHT22;7469;50.906;6.952;2024-01-15T03:45:54;1.50;99.90
14755;DHT22;7469;50.906;6.952;2024-01-15T03:48:23;1.50;99.90
14755;DHT22;7469;50.906;6.952;2024-01-15T03:50:52;1.50;99.90
14755;DHT22;7469;50.906;6.952;2024-01-15T03:53:20;1.50;99.90
14755;DHT22;7469;50.906;6.952;2024-01-15T03:55:49;1.50;99.90
14755;DHT22;7469;50.906;6.952;2024-01-15T03:58:17;1.60;99.90
14755;DHT22;7469;50.906;6.952;2024-01-15T04:00:45;1.60;99.90
14755;DHT22;7469;50.906;6.952;2024-01-15T04:03:13;1.60;99.90
14755;DHT22;7469;50.906;6.952;2024-01-15T04:05:41;1.60;99.90
14755;DHT22;7469;50.906;6.952;2024-01-15T04:08:10;1.60;99.90
14755;DHT22;7469;50.906;6.952;2024-01-15T04:10:38;1.70;99.90
14755;DHT22;7469;50.906;6.952;2024-01-15T04:13:06;1.60;99.90
14755;DHT22;7469;50.906;6.952;2024-01-15T04:15:34;1.60;99.90
14755;DHT22;7469;50.906;6.952;2024-01-15T04:18:03;1.60;99.90
14755;DHT22;7469;50.906;6.952;2024-01-15T04:20:31;1.70;99.90
14755;DHT22;7469;50.906;6.952;2024-01-15T04:22:59;1.70;99.90
14755;DHT22;7469;50.906;6.952;2024-01-15T04:25:29;1.70;99.90
14755;DHT22;7469;50.906;6.952;2024-01-15T04:27:56;1.70;99.90
14755;DHT22;7469;50.906;6.952;2024-01-15T04:30:25;1.60;99.90
14755;DHT22;7469;50.906;6.952;2024-01-15T04:32:53;1.70;99.90
14755;DHT22;7469;50.906;6.952;2024-01-15T04:35:21;1.70;99.90
14755;DHT22;7469;50.906;6.952;2024-01-15T04:37:49;1.60;99.90
14755;DHT22;7469;50.906;6.952;2024-01-15T04:40:17;1.60;99.90
14755;DHT22;7469;50.906;6.952;2024-01-15T04:42:46;1.60;99.90
14755;DHT22;7469;50.906;6.952;2024-01-15T04:45:14;1.60;99.90
14755;DHT22;7469;50.906;6.952;2024-01-15T04:47:42;1.60;99.90
14755;DHT22;7469;50.906;6.952;2024-01-15T04:50:10;1.60;99.90
14755;DHT22;7469;50.906;6.952;2024-01-15T04:52:38;1.60;99.90
14755;DHT22;7469;50.906;6.952;2024-01-15T04:55:07;1.60;99.90
14755;DHT22;7469;50.906;6.952;2024-01-15T04:57:35;1.70;99.90
14755;DHT22;7469;50.906;6.952;2024-01-15T05:00:05;1.60;99.90
14755;DHT22;7469;50.906;6.952;2024-01-15T05:02:33;1.60;99.90
14755;DHT22;7469;50.906;6.952;2024-01-15T05:05:01;1.60;99.90
14755;DHT22;7469;50.906;6.952;2024-01-15T05:07:29;1.60;99.90
14755;DHT22;7469;50.906;6.952;2024-01-15T05:09:57;1.70;99.90
14755;DHT22;7469;50.906;6.952;2024-01-15T05:12:26;1.70;99.90
14755;DHT22;7469;50.906;6.952;2024-01-15T05:14:54;1.70;99.90
14755;DHT22;7469;50.906;6.952;2024-01-15T05:17:24;1.70;99.90
14755;DHT22;7469;50.906;6.952;2024-01-15T05:19:52;1.70;99.90
14755;DHT22;7469;50.906;6.952;2024-01-15T05:22:20;1.80;99.90
14755;DHT22;7469;50.906;6.952;2024-01-15T05:24:48;1.80;99.90
14755;DHT22;7469;50.906;6.952;2024-01-15T05:27:16;1.80;99.90
14755;DHT22;7469;50.906;6.952;2024-01-15T05:29:44;1.80;99.90
14755;DHT22;7469;50.906;6.952;2024-01-15T05:32:12;1.70;99.90
14755;DHT22;7469;50.906;6.952;2024-01-15T05:34:41;1.80;99.90
14755;DHT22;7469;50.906;6.952;2024-01-15T05:37:10;1.80;99.90
14755;DHT22;7469;50.906;6.952;2024-01-15T05:39:38;1.80;99.90
14755;DHT22;7469;50.906;6.952;2024-01-15T05:42:06;1.80;99.90
14755;DHT22;7469;50.906;6.952;2024-01-15T05:44:34;1.80;99.90
14755;DHT22;7469;50.906;6.952;2024-01-15T05:47:03;1.80;99.90
14755;DHT22;7469;50.906;6.952;2024-01-15T05:49:31;1.80;99.90
14755;DHT22;7469;50.906;6.952;2024-01-15T05:52:00;1.80;99.90
14755;DHT22;7469;50.906;6.952;2024-01-15T05:54:30;1.90;99.90
14755;DHT22;7469;50.906;6.952;2024-01-15T05:56:58;1.90;99.90
14755;DHT22;7469;50.906;6.952;2024-01-15T05:59:26;1.90;99.90
14755;DHT22;7469;50.906;6.952;2024-01-15T06:01:55;1.90;99.90
14755;DHT22;7469;50.906;6.952;2024-01-15T06:04:23;2.00;99.90
14755;DHT22;7469;50.906;6.952;2024-01-15T06:06:51;2.00;99.90
14755;DHT22;7469;50.906;6.952;2024-01-15T06:09:20;2.00;99.90
14755;DHT22;7469;50.906;6.952;2024-01-15T06:11:48;2.00;99.90
14755;DHT22;7469;50.906;6.952;2024-01-15T06:14:16;2.00;99.90
14755;DHT22;7469;50.906;6.952;2024-01-15T06:16:44;2.00;99.90
14755;DHT22;7469;50.906;6.952;2024-01-15T06:19:12;2.00;99.90
14755;DHT22;7469;50.906;6.952;2024-01-15T06:21:40;2.00;99.90
14755;DHT22;7469;50.906;6.952;2024-01-15T06:24:08;2.00;99.90
14755;DHT22;7469;50.906;6.952;2024-01-15T06:26:38;2.00;99.90
14755;DHT22;7469;50.906;6.952;2024-01-15T06:29:06;2.00;99.90
14755;DHT22;7469;50.906;6.952;2024-01-15T06:31:35;2.00;99.90
14755;DHT22;7469;50.906;6.952;2024-01-15T06:34:03;2.00;99.90
14755;DHT22;7469;50.906;6.952;2024-01-15T06:36:31;2.00;99.90
14755;DHT22;7469;50.906;6.952;2024-01-15T06:38:59;2.00;99.90
14755;DHT22;7469;50.906;6.952;2024-01-15T06:41:27;2.00;99.90
14755;DHT22;7469;50.906;6.952;2024-01-15T06:43:56;2.00;99.90
14755;DHT22;7469;50.906;6.952;2024-01-15T06:46:24;2.00;99.90
14755;DHT22;7469;50.906;6.952;2024-01-15T06:48:52;2.00;99.90
14755;DHT22;7469;50.906;6.952;2024-01-15T06:51:21;2.00;99.90
14755;DHT22;7469;50.906;6.952;2024-01-15T06:53:51;2.00;99.90
14755;DHT22;7469;50.906;6.952;2024-01-15T06:56:19;2.00;99.90
14755;DHT22;7469;50.906;6.952;2024-01-15T06:58:47;2.00;99.90
14755;DHT22;7469;50.906;6.952;2024-01-15T07:01:16;2.00;99.90
14755;DHT22;7469;50.906;6.952;2024-01-15T07:03:44;2.00;99.90
14755;DHT22;7469;50.906;6.952;2024-01-15T07:06:14;2.00;99.90
14755;DHT22;7469;50.906;6.952;2024-01-15T07:08:42;2.00;99.90
14755;DHT22;7469;50.906;6.952;2024-01-15T07:11:10;2.00;99.90
14755;DHT22;7469;50.906;6.952;2024-01-15T07:13:38;2.00;99.90
14755;DHT22;7469;50.906;6.952;2024-01-15T07:16:06;2.00;99.90
14755;DHT22;7469;50.906;6.952;2024-01-15T07:18:35;2.00;99.90
14755;DHT22;7469;50.906;6.952;2024-01-15T07:21:04;2.00;99.90
14755;DHT22;7469;50.906;6.952;2024-01-15T07:23:32;2.00;99.90
14755;DHT22;7469;50.906;6.952;2024-01-15T07:26:00;2.00;99.90
14755;DHT22;7469;50.906;6.952;2024-01-15T07:28:29;2.00;99.90
14755;DHT22;7469;50.906;6.952;2024-01-15T07:30:57;2.00;99.90
14755;DHT22;7469;50.906;6.952;2024-01-15T07:33:25;2.10;99.90
14755;DHT22;7469;50.906;6.952;2024-01-15T07:35:55;2.10;99.90
14755;DHT22;7469;50.906;6.952;2024-01-15T07:38:26;2.10;99.90
14755;DHT22;7469;50.906;6.952;2024-01-15T07:40:55;2.10;99.90
14755;DHT22;7469;50.906;6.952;2024-01-15T07:43:23;2.10;99.90
14755;DHT22;7469;50.906;6.952;2024-01-15T07:45:51;2.10;99.90
14755;DHT22;7469;50.906;6.952;2024-01-15T07:48:19;2.00;99.90
14755;DHT22;7469;50.906;6.952;2024-01-15T07:50:48;2.10;99.90
14755;DHT22;7469;50.906;6.952;2024-01-15T07:53:17;2.10;99.90
14755;DHT22;7469;50.906;6.952;2024-01-15T07:55:45;2.10;99.90
14755;DHT22;7469;50.906;6.952;2024-01-15T07:58:13;2.10;99.90
14755;DHT22;7469;50.906;6.952;2024-01-15T08:00:43;2.10;99.90
14755;DHT22;7469;50.906;6.952;2024-01-15T08:03:11;2.10;99.90
14755;DHT22;7469;50.906;6.952;2024-01-15T08:05:40;2.10;99.90
14755;DHT22;7469;50.906;6.952;2024-01-15T08:08:08;2.20;99.90
14755;DHT22;7469;50.906;6.952;2024-01-15T08:10:37;2.20;99.90
14755;DHT22;7469;50.906;6.952;2024-01-15T08:13:05;2.20;99.90
14755;DHT22;7469;50.906;6.952;2024-01-15T08:15:34;2.20;99.90
14755;DHT22;7469;50.906;6.952;2024-01-15T08:18:02;2.20;99.90
14755;DHT22;7469;50.906;6.952;2024-01-15T08:20:31;2.20;99.90
14755;DHT22;7469;50.906;6.952;2024-01-15T08:22:59;2.30;99.90
14755;DHT22;7469;50.906;6.952;2024-01-15T08:25:26;2.30;99.90
14755;DHT22;7469;50.906;6.952;2024-01-15T08:27:56;2.30;99.90
14755;DHT22;7469;50.906;6.952;2024-01-15T08:30:24;2.30;99.90
14755;DHT22;7469;50.906;6.952;2024-01-15T08:32:54;2.40;99.90
14755;DHT22;7469;50.906;6.952;2024-01-15T08:35:27;2.40;99.90
14755;DHT22;7469;50.906;6.952;2024-01-15T08:37:55;2.40;99.90
14755;DHT22;7469;50.906;6.952;2024-01-15T08:40:25;2.40;99.90
14755;DHT22;7469;50.906;6.952;2024-01-15T08:42:53;2.40;99.90
14755;DHT22;7469;50.906;6.952;2024-01-15T08:45:22;2.40;99.90
14755;DHT22;7469;50.906;6.952;2024-01-15T08:47:51;2.40;99.90
14755;DHT22;7469;50.906;6.952;2024-01-15T08:50:19;2.40;99.90
14755;DHT22;7469;50.906;6.952;2024-01-15T08:52:47;2.40;99.90
14755;DHT22;7469;50.906;6.952;2024-01-15T08:55:15;2.40;99.90
14755;DHT22;7469;50.906;6.952;2024-01-15T08:57:43;2.50;99.90
14755;DHT22;7469;50.906;6.952;2024-01-15T09:00:13;2.50;99.90
14755;DHT22;7469;50.906;6.952;2024-01-15T09:02:42;2.50;99.90
14755;DHT22;7469;50.906;6.952;2024-01-15T09:05:11;2.40;99.90
14755;DHT22;7469;50.906;6.952;2024-01-15T09:07:39;2.40;99.90
14755;DHT22;7469;50.906;6.952;2024-01-15T09:10:07;2.40;99.90
14755;DHT22;7469;50.906;6.952;2024-01-15T09:12:35;2.40;99.90
14755;DHT22;7469;50.906;6.952;2024-01-15T09:15:04;2.50;99.90
14755;DHT22;7469;50.906;6.952;2024-01-15T09:17:33;2.40;99.90
14755;DHT22;7469;50.906;6.952;2024-01-15T09:20:02;2.40;99.90
14755;DHT22;7469;50.906;6.952;2024-01-15T09:22:32;2.40;99.90
14755;DHT22;7469;50.906;6.952;2024-01-15T09:25:00;2.40;99.90
14755;DHT22;7469;50.906;6.952;2024-01-15T09:27:28;2.40;99.90
14755;DHT22;7469;50.906;6.952;2024-01-15T09:29:56;2.40;99.90
14755;DHT22;7469;50.906;6.952;2024-01-15T09:32:24;2.40;99.90
14755;DHT22;7469;50.906;6.952;2024-01-15T09:34:52;2.40;99.90
14755;DHT22;7469;50.906;6.952;2024-01-15T09:37:21;2.30;99.90
14755;DHT22;7469;50.906;6.952;2024-01-15T09:40:12;2.30;99.90
14755;DHT22;7469;50.906;6.952;2024-01-15T09:42:41;2.30;99.90
14755;DHT22;7469;50.906;6.952;2024-01-15T09:45:10;2.20;99.90
14755;DHT22;7469;50.906;6.952;2024-01-15T09:47:39;2.20;99.90
14755;DHT22;7469;50.906;6.952;2024-01-15T09:50:13;2.10;99.90
14755;DHT22;7469;50.906;6.952;2024-01-15T09:52:43;2.10;99.90
14755;DHT22;7469;50.906;6.952;2024-01-15T09:55:13;2.00;99.90
14755;DHT22;7469;50.906;6.952;2024-01-15T09:57:44;2.00;99.90
14755;DHT22;7469;50.906;6.952;2024-01-15T10:00:13;2.00;99.90
14755;DHT22;7469;50.906;6.952;2024-01-15T10:02:42;1.90;99.90
14755;DHT22;7469;50.906;6.952;2024-01-15T10:05:10;1.90;99.90
14755;DHT22;7469;50.906;6.952;2024-01-15T10:07:39;1.90;99.90
14755;DHT22;7469;50.906;6.952;2024-01-15T10:10:11;1.80;99.90
14755;DHT22;7469;50.906;6.952;2024-01-15T10:12:39;1.80;99.90
14755;DHT22;7469;50.906;6.952;2024-01-15T10:15:09;1.90;99.90
14755;DHT22;7469;50.906;6.952;2024-01-15T10:17:38;1.90;99.90
14755;DHT22;7469;50.906;6.952;2024-01-15T10:20:09;1.90;99.90
14755;DHT22;7469;50.906;6.952;2024-01-15T10:22:40;1.90;99.90
14755;DHT22;7469;50.906;6.952;2024-01-15T10:25:11;1.90;99.90
14755;DHT22;7469;50.906;6.952;2024-01-15T10:27:40;1.90;99.90
14755;DHT22;7469;50.906;6.952;2024-01-15T10:30:08;1.90;99.90
14755;DHT22;7469;50.906;6.952;2024-01-15T10:32:37;2.00;99.90
14755;DHT22;7469;50.906;6.952;2024-01-15T10:35:07;1.90;99.90
14755;DHT22;7469;50.906;6.952;2024-01-15T10:37:35;2.00;99.90
14755;DHT22;7469;50.906;6.952;2024-01-15T10:40:03;2.00;99.90
14755;DHT22;7469;50.906;6.952;2024-01-15T10:42:36;1.90;99.90
14755;DHT22;7469;50.906;6.952;2024-01-15T10:45:05;1.90;99.90
14755;DHT22;7469;50.906;6.952;2024-01-15T10:47:36;2.00;99.90
14755;DHT22;7469;50.906;6.952;2024-01-15T10:50:05;2.00;99.90
14755;DHT22;7469;50.906;6.952;2024-01-15T10:52:34;1.90;99.90
14755;DHT22;7469;50.906;6.952;2024-01-15T10:55:03;1.90;99.90
14755;DHT22;7469;50.906;6.952;2024-01-15T10:57:39;1.90;99.90
14755;DHT22;7469;50.906;6.952;2024-01-15T11:00:08;1.80;99.90
14755;DHT22;7469;50.906;6.952;2024-01-15T11:02:42;1.80;99.90
14755;DHT22;7469;50.906;6.952;2024-01-15T11:05:12;1.80;99.90
14755;DHT22;7469;50.906;6.952;2024-01-15T11:07:40;1.80;99.90
14755;DHT22;7469;50.906;6.952;2024-01-15T11:10:38;1.80;99.90
14755;DHT22;7469;50.906;6.952;2024-01-15T11:13:14;1.80;99.90
14755;DHT22;7469;50.906;6.952;2024-01-15T11:15:58;1.80;99.90
14755;DHT22;7469;50.906;6.952;2024-01-15T11:18:31;1.90;99.90
14755;DHT22;7469;50.906;6.952;2024-01-15T11:21:25;1.90;99.90
14755;DHT22;7469;50.906;6.952;2024-01-15T11:23:55;1.90;99.90
14755;DHT22;7469;50.906;6.952;2024-01-15T11:26:37;2.00;99.90
14755;DHT22;7469;50.906;6.952;2024-01-15T11:29:08;2.00;99.90
14755;DHT22;7469;50.906;6.952;2024-01-15T11:32:04;2.00;99.90
14755;DHT22;7469;50.906;6.952;2024-01-15T11:34:53;2.10;99.90
14755;DHT22;7469;50.906;6.952;2024-01-15T11:37:26;2.00;99.90
14755;DHT22;7469;50.906;6.952;2024-01-15T11:39:55;2.10;99.90
14755;DHT22;7469;50.906;6.952;2024-01-15T11:42:23;2.20;99.90
14755;DHT22;7469;50.906;6.952;2024-01-15T11:44:53;2.20;99.90
14755;DHT22;7469;50.906;6.952;2024-01-15T11:50:22;2.20;99.90
14755;DHT22;7469;50.906;6.952;2024-01-15T11:52:55;2.20;99.90
14755;DHT22;7469;50.906;6.952;2024-01-15T11:55:34;2.30;99.90
14755;DHT22;7469;50.906;6.952;2024-01-15T11:58:08;2.30;99.90
14755;DHT22;7469;50.906;6.952;2024-01-15T12:00:42;2.30;99.90
14755;DHT22;7469;50.906;6.952;2024-01-15T12:03:10;2.30;99.90
14755;DHT22;7469;50.906;6.952;2024-01-15T12:05:39;2.20;99.90
14755;DHT22;7469;50.906;6.952;2024-01-15T12:08:09;2.20;99.90
14755;DHT22;7469;50.906;6.952;2024-01-15T12:10:39;2.20;99.90
14755;DHT22;7469;50.906;6.952;2024-01-15T12:13:11;2.20;99.90
14755;DHT22;7469;50.906;6.952;2024-01-15T12:15:42;2.20;99.90
14755;DHT22;7469;50.906;6.952;2024-01-15T12:18:13;2.20;99.90
14755;DHT22;7469;50.906;6.952;2024-01-15T12:20:43;2.20;99.90
14755;DHT22;7469;50.906;6.952;2024-01-15T12:23:13;2.30;99.90
14755;DHT22;7469;50.906;6.952;2024-01-15T12:25:42;2.40;99.90
14755;DHT22;7469;50.906;6.952;2024-01-15T12:28:10;2.50;99.90
14755;DHT22;7469;50.906;6.952;2024-01-15T12:30:39;2.70;99.90
14755;DHT22;7469;50.906;6.952;2024-01-15T12:33:08;3.10;99.90
14755;DHT22;7469;50.906;6.952;2024-01-15T12:35:37;3.20;99.90
14755;DHT22;7469;50.906;6.952;2024-01-15T12:38:05;3.30;99.90
14755;DHT22;7469;50.906;6.952;2024-01-15T12:40:33;3.30;99.90
14755;DHT22;7469;50.906;6.952;2024-01-15T12:43:05;3.30;99.90
14755;DHT22;7469;50.906;6.952;2024-01-15T12:45:33;3.30;99.90
14755;DHT22;7469;50.906;6.952;2024-01-15T12:48:03;3.20;99.90
14755;DHT22;7469;50.906;6.952;2024-01-15T12:50:34;3.20;99.90
14755;DHT22;7469;50.906;6.952;2024-01-15T12:53:03;3.20;99.90
14755;DHT22;7469;50.906;6.952;2024-01-15T12:55:31;3.20;99.90
14755;DHT22;7469;50.906;6.952;2024-01-15T12:58:01;3.20;99.90
14755;DHT22;7469;50.906;6.952;2024-01-15T13:00:29;3.10;99.90
14755;DHT22;7469;50.906;6.952;2024-01-15T13:02:57;3.20;99.90
14755;DHT22;7469;50.906;6.952;2024-01-15T13:05:26;3.30;99.90
14755;DHT22;7469;50.906;6.952;2024-01-15T13:07:56;3.30;99.90
14755;DHT22;7469;50.906;6.952;2024-01-15T13:10:26;3.40;99.90
14755;DHT22;7469;50.906;6.952;2024-01-15T13:12:56;3.30;99.90
14755;DHT22;7469;50.906;6.952;2024-01-15T13:15:24;3.30;99.90
14755;DHT22;7469;50.906;6.952;2024-01-15T13:17:53;3.30;99.90
14755;DHT22;7469;50.906;6.952;2024-01-15T13:20:22;3.30;99.90
14755;DHT22;7469;50.906;6.952;2024-01-15T13:22:50;3.30;99.90
14755;DHT22;7469;50.906;6.952;2024-01-15T13:25:19;3.30;99.90
14755;DHT22;7469;50.906;6.952;2024-01-15T13:27:47;3.20;99.90
14755;DHT22;7469;50.906;6.952;2024-01-15T13:30:17;3.20;99.90
14755;DHT22;7469;50.906;6.952;2024-01-15T13:32:45;3.10;99.90
14755;DHT22;7469;50.906;6.952;2024-01-15T13:35:13;3.10;99.90
14755;DHT22;7469;50.906;6.952;2024-01-15T13:37:41;3.10;99.90
14755;DHT22;7469;50.906;6.952;2024-01-15T13:40:10;3.00;99.90
14755;DHT22;7469;50.906;6.952;2024-01-15T13:42:45;3.00;99.90
14755;DHT22;7469;50.906;6.952;2024-01-15T13:45:14;3.00;99.90
14755;DHT22;7469;50.906;6.952;2024-01-15T13:47:42;3.00;99.90
14755;DHT22;7469;50.906;6.952;2024-01-15T13:50:11;3.00;99.90
14755;DHT22;7469;50.906;6.952;2024-01-15T13:52:39;3.00;99.90
14755;DHT22;7469;50.906;6.952;2024-01-15T13:55:08;3.00;99.90
14755;DHT22;7469;50.906;6.952;2024-01-15T13:57:36;2.90;99.90
14755;DHT22;7469;50.906;6.952;2024-01-15T14:00:07;3.00;99.90
14755;DHT22;7469;50.906;6.952;2024-01-15T14:02:39;2.90;99.90
14755;DHT22;7469;50.906;6.952;2024-01-15T14:05:07;3.00;99.90
14755;DHT22;7469;50.906;6.952;2024-01-15T14:07:36;3.00;99.90
14755;DHT22;7469;50.906;6.952;2024-01-15T14:10:06;3.00;99.90
14755;DHT22;7469;50.906;6.952;2024-01-15T14:12:35;3.00;99.90
14755;DHT22;7469;50.906;6.952;2024-01-15T14:15:06;2.90;99.90
14755;DHT22;7469;50.906;6.952;2024-01-15T14:17:34;2.90;99.90
14755;DHT22;7469;50.906;6.952;2024-01-15T14:20:03;2.80;99.90
14755;DHT22;7469;50.906;6.952;2024-01-15T14:22:33;2.90;99.90
14755;DHT22;7469;50.906;6.952;2024-01-15T14:25:01;2.90;99.90
14755;DHT22;7469;50.906;6.952;2024-01-15T14:27:29;2.90;99.90
14755;DHT22;7469;50.906;6.952;2024-01-15T14:29:57;2.80;99.90
14755;DHT22;7469;50.906;6.952;2024-01-15T14:32:26;2.80;99.90
14755;DHT22;7469;50.906;6.952;2024-01-15T14:34:54;2.80;99.90
14755;DHT22;7469;50.906;6.952;2024-01-15T14:37:23;2.80;99.90
14755;DHT22;7469;50.906;6.952;2024-01-15T14:39:51;2.70;99.90
14755;DHT22;7469;50.906;6.952;2024-01-15T14:42:19;2.80;99.90
14755;DHT22;7469;50.906;6.952;2024-01-15T14:44:48;2.70;99.90
14755;DHT22;7469;50.906;6.952;2024-01-15T14:47:15;2.70;99.90
14755;DHT22;7469;50.906;6.952;2024-01-15T14:49:45;2.60;99.90
14755;DHT22;7469;50.906;6.952;2024-01-15T14:52:13;2.60;99.90
14755;DHT22;7469;50.906;6.952;2024-01-15T14:54:41;2.50;99.90
14755;DHT22;7469;50.906;6.952;2024-01-15T14:57:09;2.50;99.90
14755;DHT22;7469;50.906;6.952;2024-01-15T14:59:37;2.50;99.90
14755;DHT22;7469;50.906;6.952;2024-01-15T15:02:05;2.50;99.90
14755;DHT22;7469;50.906;6.952;2024-01-15T15:04:33;2.40;99.90
14755;DHT22;7469;50.906;6.952;2024-01-15T15:07:03;2.40;99.90
14755;DHT22;7469;50.906;6.952;2024-01-15T15:09:33;2.40;99.90
14755;DHT22;7469;50.906;6.952;2024-01-15T15:12:01;2.40;99.90
14755;DHT22;7469;50.906;6.952;2024-01-15T15:14:31;2.40;99.90
14755;DHT22;7469;50.906;6.952;2024-01-15T15:17:14;2.30;99.90
14755;DHT22;7469;50.906;6.952;2024-01-15T15:19:42;2.30;99.90
14755;DHT22;7469;50.906;6.952;2024-01-15T15:22:11;2.30;99.90
14755;DHT22;7469;50.906;6.952;2024-01-15T15:24:39;2.30;99.90
14755;DHT22;7469;50.906;6.952;2024-01-15T15:27:08;2.20;99.90
14755;DHT22;7469;50.906;6.952;2024-01-15T15:29:36;2.20;99.90
14755;DHT22;7469;50.906;6.952;2024-01-15T15:32:04;2.30;99.90
14755;DHT22;7469;50.906;6.952;2024-01-15T15:34:32;2.20;99.90
14755;DHT22;7469;50.906;6.952;2024-01-15T15:37:00;2.20;99.90
14755;DHT22;7469;50.906;6.952;2024-01-15T15:39:30;2.20;99.90
14755;DHT22;7469;50.906;6.952;2024-01-15T15:41:58;2.20;99.90
14755;DHT22;7469;50.906;6.952;2024-01-15T15:44:27;2.20;99.90
14755;DHT22;7469;50.906;6.952;2024-01-15T15:46:55;2.20;99.90
14755;DHT22;7469;50.906;6.952;2024-01-15T15:49:23;2.20;99.90
14755;DHT22;7469;50.906;6.952;2024-01-15T15:51:51;2.20;99.90
14755;DHT22;7469;50.906;6.952;2024-01-15T15:54:19;2.10;99.90
14755;DHT22;7469;50.906;6.952;2024-01-15T15:56:49;2.20;99.90
14755;DHT22;7469;50.906;6.952;2024-01-15T15:59:20;2.10;99.90
14755;DHT22;7469;50.906;6.952;2024-01-15T16:01:51;2.10;99.90
14755;DHT22;7469;50.906;6.952;2024-01-15T16:04:19;2.10;99.90
14755;DHT22;7469;50.906;6.952;2024-01-15T16:06:48;2.10;99.90
14755;DHT22;7469;50.906;6.952;2024-01-15T16:09:17;2.10;99.90
14755;DHT22;7469;50.906;6.952;2024-01-15T16:11:45;2.10;99.90
14755;DHT22;7469;50.906;6.952;2024-01-15T16:14:15;2.10;99.90
14755;DHT22;7469;50.906;6.952;2024-01-15T16:16:44;2.10;99.90